Accueil
METAR-TAF:

METAR-TAF

Aéroports :

Brive-la-Gaillarde, France

Aéroport de Brive-Vallée de la Dordogne

latitude: 45-02-28N, longitude: 001-28-59E, altitude: 311 m

Observation

Le bulletin a été fait il y a 32 minutes, à 08:30 UTC
Vent 7 kt de nord/nord-ouest
Température 16°C
Humidité 63%
Pression 1024 hPa
Visibilité 10 km ou plus
pas de nuages en-dessous de 1500 mètres et pas de cumulonimbus.

METAR: LFSL 190830Z AUTO 34007KT CAVOK 16/09 Q1024 NOSIG

Heure: 11:02 (09:02 UTC)

Prévision

Le bulletin a été fait il y a 1 heure et 2 minutes, à 08:00 UTC
Prévision valable du 19 à 09 UTC au 19 à 18 UTC
Vent 6 kt de nord/nord-ouest
Visibilité 10 km ou plus
pas de nuages en-dessous de 1500 mètres et pas de cumulonimbus.

TAF: LFSL 190800Z 1909/1918 33006KT CAVOK

Observations et prévisions météorologiques de plus de 4000 aéroports (messages METAR et TAF).

Les stations disponibles sont représentées par des disques jaunes et rouges sur la carte.

Passer la souris dessus pour voir le nom de la station.

Cliquer dessus pour voir les observations et prévisions météorologiques.

Pour changer de carte: cliquez sur les boutons verts avec une croix noire pour zoomer, sur le bouton vert avec un tiret pour effectuer un zoom arrière, ou sur les flèches vertes pour les cartes adjacentes.


METAR-TAF: